sensor_id;sensor_type;location;lat;lon;timestamp;temperature;humidity
64062;DHT22;50308;47.438;-1.528;2023-06-14T00:00:34;22.10;71.40
64062;DHT22;50308;47.438;-1.528;2023-06-14T00:03:00;22.10;71.60
64062;DHT22;50308;47.438;-1.528;2023-06-14T00:05:26;22.10;71.90
64062;DHT22;50308;47.438;-1.528;2023-06-14T00:07:52;22.00;71.60
64062;DHT22;50308;47.438;-1.528;2023-06-14T00:10:19;22.00;71.90
64062;DHT22;50308;47.438;-1.528;2023-06-14T00:12:45;21.90;72.40
64062;DHT22;50308;47.438;-1.528;2023-06-14T00:15:10;21.90;72.50
64062;DHT22;50308;47.438;-1.528;2023-06-14T00:17:36;21.90;72.40
64062;DHT22;50308;47.438;-1.528;2023-06-14T00:20:05;21.90;72.20
64062;DHT22;50308;47.438;-1.528;2023-06-14T00:22:33;21.80;72.00
64062;DHT22;50308;47.438;-1.528;2023-06-14T00:24:59;21.80;72.10
64062;DHT22;50308;47.438;-1.528;2023-06-14T00:27:25;21.80;72.20
64062;DHT22;50308;47.438;-1.528;2023-06-14T00:29:51;21.70;72.20
64062;DHT22;50308;47.438;-1.528;2023-06-14T00:32:18;21.70;71.80
64062;DHT22;50308;47.438;-1.528;2023-06-14T00:34:44;21.70;72.20
64062;DHT22;50308;47.438;-1.528;2023-06-14T00:37:10;21.70;72.00
64062;DHT22;50308;47.438;-1.528;2023-06-14T00:39:35;21.70;71.80
64062;DHT22;50308;47.438;-1.528;2023-06-14T00:42:01;21.70;72.30
64062;DHT22;50308;47.438;-1.528;2023-06-14T00:44:27;21.60;72.90
64062;DHT22;50308;47.438;-1.528;2023-06-14T00:46:52;21.60;72.80
64062;DHT22;50308;47.438;-1.528;2023-06-14T00:49:19;21.60;72.80
64062;DHT22;50308;47.438;-1.528;2023-06-14T00:51:45;21.60;72.50
64062;DHT22;50308;47.438;-1.528;2023-06-14T00:54:11;21.60;72.40
64062;DHT22;50308;47.438;-1.528;2023-06-14T00:56:37;21.60;72.40
64062;DHT22;50308;47.438;-1.528;2023-06-14T00:59:03;21.50;72.80
64062;DHT22;50308;47.438;-1.528;2023-06-14T01:01:30;21.50;73.00
64062;DHT22;50308;47.438;-1.528;2023-06-14T01:03:58;21.40;72.90
64062;DHT22;50308;47.438;-1.528;2023-06-14T01:06:35;21.40;73.30
64062;DHT22;50308;47.438;-1.528;2023-06-14T01:09:13;21.40;73.10
64062;DHT22;50308;47.438;-1.528;2023-06-14T01:14:39;21.30;73.60
64062;DHT22;50308;47.438;-1.528;2023-06-14T01:17:05;21.30;73.40
64062;DHT22;50308;47.438;-1.528;2023-06-14T01:19:33;21.30;73.70
64062;DHT22;50308;47.438;-1.528;2023-06-14T01:22:01;21.20;73.70
64062;DHT22;50308;47.438;-1.528;2023-06-14T01:24:27;21.20;73.90
64062;DHT22;50308;47.438;-1.528;2023-06-14T01:26:58;21.20;74.10
64062;DHT22;50308;47.438;-1.528;2023-06-14T01:29:25;21.20;74.20
64062;DHT22;50308;47.438;-1.528;2023-06-14T01:31:53;21.10;74.10
64062;DHT22;50308;47.438;-1.528;2023-06-14T01:34:20;21.20;73.80
64062;DHT22;50308;47.438;-1.528;2023-06-14T01:36:46;21.10;73.90
64062;DHT22;50308;47.438;-1.528;2023-06-14T01:39:14;21.10;74.20
64062;DHT22;50308;47.438;-1.528;2023-06-14T01:41:41;21.10;74.20
64062;DHT22;50308;47.438;-1.528;2023-06-14T01:44:08;21.10;74.30
64062;DHT22;50308;47.438;-1.528;2023-06-14T01:46:35;21.00;74.20
64062;DHT22;50308;47.438;-1.528;2023-06-14T01:49:01;21.00;74.50
64062;DHT22;50308;47.438;-1.528;2023-06-14T01:51:27;21.00;74.60
64062;DHT22;50308;47.438;-1.528;2023-06-14T01:53:53;20.90;74.50
64062;DHT22;50308;47.438;-1.528;2023-06-14T01:56:19;21.00;74.90
64062;DHT22;50308;47.438;-1.528;2023-06-14T01:58:45;21.00;74.70
64062;DHT22;50308;47.438;-1.528;2023-06-14T02:01:11;20.90;74.90
64062;DHT22;50308;47.438;-1.528;2023-06-14T02:03:38;20.90;74.90
64062;DHT22;50308;47.438;-1.528;2023-06-14T02:06:04;20.80;74.70
64062;DHT22;50308;47.438;-1.528;2023-06-14T02:08:29;20.90;75.10
64062;DHT22;50308;47.438;-1.528;2023-06-14T02:10:55;20.90;75.10
64062;DHT22;50308;47.438;-1.528;2023-06-14T02:13:21;20.80;74.90
64062;DHT22;50308;47.438;-1.528;2023-06-14T02:15:47;20.90;75.00
64062;DHT22;50308;47.438;-1.528;2023-06-14T02:18:16;20.80;74.90
64062;DHT22;50308;47.438;-1.528;2023-06-14T02:20:42;20.80;74.90
64062;DHT22;50308;47.438;-1.528;2023-06-14T02:23:07;20.80;75.10
64062;DHT22;50308;47.438;-1.528;2023-06-14T02:25:33;20.80;75.10
64062;DHT22;50308;47.438;-1.528;2023-06-14T02:27:59;20.70;75.20
64062;DHT22;50308;47.438;-1.528;2023-06-14T02:30:25;20.70;75.30
64062;DHT22;50308;47.438;-1.528;2023-06-14T02:32:51;20.70;75.20
64062;DHT22;50308;47.438;-1.528;2023-06-14T02:35:16;20.70;75.20
64062;DHT22;50308;47.438;-1.528;2023-06-14T02:37:42;20.70;75.40
64062;DHT22;50308;47.438;-1.528;2023-06-14T02:40:08;20.70;75.20
64062;DHT22;50308;47.438;-1.528;2023-06-14T02:42:34;20.70;74.90
64062;DHT22;50308;47.438;-1.528;2023-06-14T02:45:00;20.60;74.90
64062;DHT22;50308;47.438;-1.528;2023-06-14T02:47:27;20.60;75.40
64062;DHT22;50308;47.438;-1.528;2023-06-14T02:49:53;20.70;75.20
64062;DHT22;50308;47.438;-1.528;2023-06-14T02:52:19;20.60;75.10
64062;DHT22;50308;47.438;-1.528;2023-06-14T02:54:45;20.60;75.20
64062;DHT22;50308;47.438;-1.528;2023-06-14T02:57:12;20.60;75.50
64062;DHT22;50308;47.438;-1.528;2023-06-14T02:59:38;20.50;75.40
64062;DHT22;50308;47.438;-1.528;2023-06-14T03:02:04;20.50;75.50
64062;DHT22;50308;47.438;-1.528;2023-06-14T03:04:30;20.50;75.30
64062;DHT22;50308;47.438;-1.528;2023-06-14T03:07:00;20.40;75.50
64062;DHT22;50308;47.438;-1.528;2023-06-14T03:09:28;20.50;75.70
64062;DHT22;50308;47.438;-1.528;2023-06-14T03:11:54;20.40;75.70
64062;DHT22;50308;47.438;-1.528;2023-06-14T03:14:19;20.40;75.70
64062;DHT22;50308;47.438;-1.528;2023-06-14T03:16:46;20.40;75.70
64062;DHT22;50308;47.438;-1.528;2023-06-14T03:19:12;20.40;75.70
64062;DHT22;50308;47.438;-1.528;2023-06-14T03:21:38;20.30;75.80
64062;DHT22;50308;47.438;-1.528;2023-06-14T03:24:08;20.40;75.90
64062;DHT22;50308;47.438;-1.528;2023-06-14T03:26:34;20.30;75.80
64062;DHT22;50308;47.438;-1.528;2023-06-14T03:29:02;20.30;75.80
64062;DHT22;50308;47.438;-1.528;2023-06-14T03:31:29;20.30;75.60
64062;DHT22;50308;47.438;-1.528;2023-06-14T03:33:58;20.30;75.80
64062;DHT22;50308;47.438;-1.528;2023-06-14T03:36:24;20.30;76.00
64062;DHT22;50308;47.438;-1.528;2023-06-14T03:38:51;20.20;76.10
64062;DHT22;50308;47.438;-1.528;2023-06-14T03:41:16;20.20;76.00
64062;DHT22;50308;47.438;-1.528;2023-06-14T03:43:42;20.10;76.20
64062;DHT22;50308;47.438;-1.528;2023-06-14T03:46:08;20.20;76.20
64062;DHT22;50308;47.438;-1.528;2023-06-14T03:48:33;20.20;76.20
64062;DHT22;50308;47.438;-1.528;2023-06-14T03:50:59;20.20;76.00
64062;DHT22;50308;47.438;-1.528;2023-06-14T03:53:25;20.10;76.00
64062;DHT22;50308;47.438;-1.528;2023-06-14T03:55:53;20.10;77.20
64062;DHT22;50308;47.438;-1.528;2023-06-14T03:58:19;20.10;76.20
64062;DHT22;50308;47.438;-1.528;2023-06-14T04:00:45;20.00;76.20
64062;DHT22;50308;47.438;-1.528;2023-06-14T04:03:11;20.00;76.30
64062;DHT22;50308;47.438;-1.528;2023-06-14T04:05:39;20.00;76.50
64062;DHT22;50308;47.438;-1.528;2023-06-14T04:08:10;20.00;76.30
64062;DHT22;50308;47.438;-1.528;2023-06-14T04:10:36;20.00;76.30
64062;DHT22;50308;47.438;-1.528;2023-06-14T04:13:02;20.00;76.30
64062;DHT22;50308;47.438;-1.528;2023-06-14T04:15:27;19.90;76.50
64062;DHT22;50308;47.438;-1.528;2023-06-14T04:17:54;19.90;76.50
64062;DHT22;50308;47.438;-1.528;2023-06-14T04:20:23;19.90;76.70
64062;DHT22;50308;47.438;-1.528;2023-06-14T04:22:50;19.90;76.70
64062;DHT22;50308;47.438;-1.528;2023-06-14T04:25:16;19.90;76.80
64062;DHT22;50308;47.438;-1.528;2023-06-14T04:27:42;19.90;76.80
64062;DHT22;50308;47.438;-1.528;2023-06-14T04:30:08;19.90;77.00
64062;DHT22;50308;47.438;-1.528;2023-06-14T04:32:34;19.90;76.90
64062;DHT22;50308;47.438;-1.528;2023-06-14T04:35:06;19.90;76.70
64062;DHT22;50308;47.438;-1.528;2023-06-14T04:37:32;19.90;76.80
64062;DHT22;50308;47.438;-1.528;2023-06-14T04:39:58;19.90;76.90
64062;DHT22;50308;47.438;-1.528;2023-06-14T04:42:24;19.80;77.10
64062;DHT22;50308;47.438;-1.528;2023-06-14T04:44:56;19.80;77.00
64062;DHT22;50308;47.438;-1.528;2023-06-14T04:47:22;19.80;77.10
64062;DHT22;50308;47.438;-1.528;2023-06-14T04:49:50;19.80;77.10
64062;DHT22;50308;47.438;-1.528;2023-06-14T04:52:18;19.80;77.00
64062;DHT22;50308;47.438;-1.528;2023-06-14T04:54:46;19.80;77.20
64062;DHT22;50308;47.438;-1.528;2023-06-14T04:57:12;19.90;77.00
64062;DHT22;50308;47.438;-1.528;2023-06-14T04:59:43;19.90;76.90
64062;DHT22;50308;47.438;-1.528;2023-06-14T05:02:10;19.90;77.00
64062;DHT22;50308;47.438;-1.528;2023-06-14T05:04:35;20.00;77.20
64062;DHT22;50308;47.438;-1.528;2023-06-14T05:07:08;20.00;77.30
64062;DHT22;50308;47.438;-1.528;2023-06-14T05:09:35;20.00;77.50
64062;DHT22;50308;47.438;-1.528;2023-06-14T05:12:01;20.00;77.40
64062;DHT22;50308;47.438;-1.528;2023-06-14T05:14:27;20.00;77.30
64062;DHT22;50308;47.438;-1.528;2023-06-14T05:16:52;20.00;77.40
64062;DHT22;50308;47.438;-1.528;2023-06-14T05:19:19;20.00;77.40
64062;DHT22;50308;47.438;-1.528;2023-06-14T05:21:47;20.10;77.70
64062;DHT22;50308;47.438;-1.528;2023-06-14T05:24:13;20.10;77.30
64062;DHT22;50308;47.438;-1.528;2023-06-14T05:26:39;20.10;77.30
64062;DHT22;50308;47.438;-1.528;2023-06-14T05:29:05;20.20;77.10
64062;DHT22;50308;47.438;-1.528;2023-06-14T05:31:31;20.20;77.60
64062;DHT22;50308;47.438;-1.528;2023-06-14T05:33:57;20.20;77.10
64062;DHT22;50308;47.438;-1.528;2023-06-14T05:36:22;20.20;77.00
64062;DHT22;50308;47.438;-1.528;2023-06-14T05:38:48;20.30;77.00
64062;DHT22;50308;47.438;-1.528;2023-06-14T05:41:14;20.30;77.10
64062;DHT22;50308;47.438;-1.528;2023-06-14T05:43:40;20.40;77.20
64062;DHT22;50308;47.438;-1.528;2023-06-14T05:46:05;20.30;77.40
64062;DHT22;50308;47.438;-1.528;2023-06-14T05:48:31;20.40;77.40
64062;DHT22;50308;47.438;-1.528;2023-06-14T05:50:58;20.30;77.40
64062;DHT22;50308;47.438;-1.528;2023-06-14T05:53:24;20.40;77.50
64062;DHT22;50308;47.438;-1.528;2023-06-14T05:55:50;20.40;77.70
64062;DHT22;50308;47.438;-1.528;2023-06-14T05:58:20;20.50;78.90
64062;DHT22;50308;47.438;-1.528;2023-06-14T06:00:46;20.50;78.00
64062;DHT22;50308;47.438;-1.528;2023-06-14T06:03:12;20.50;77.60
64062;DHT22;50308;47.438;-1.528;2023-06-14T06:05:38;20.60;77.60
64062;DHT22;50308;47.438;-1.528;2023-06-14T06:08:04;20.60;77.90
64062;DHT22;50308;47.438;-1.528;2023-06-14T06:10:30;20.60;77.70
64062;DHT22;50308;47.438;-1.528;2023-06-14T06:12:56;20.70;77.60
64062;DHT22;50308;47.438;-1.528;2023-06-14T06:15:22;20.70;77.50
64062;DHT22;50308;47.438;-1.528;2023-06-14T06:17:47;20.70;77.60
64062;DHT22;50308;47.438;-1.528;2023-06-14T06:20:13;20.70;77.50
64062;DHT22;50308;47.438;-1.528;2023-06-14T06:22:39;20.80;77.40
64062;DHT22;50308;47.438;-1.528;2023-06-14T06:25:05;20.80;77.70
64062;DHT22;50308;47.438;-1.528;2023-06-14T06:27:32;20.80;77.40
64062;DHT22;50308;47.438;-1.528;2023-06-14T06:29:58;20.80;77.10
64062;DHT22;50308;47.438;-1.528;2023-06-14T06:32:23;20.80;77.00
64062;DHT22;50308;47.438;-1.528;2023-06-14T06:34:50;20.90;77.40
64062;DHT22;50308;47.438;-1.528;2023-06-14T06:37:15;20.90;77.30
64062;DHT22;50308;47.438;-1.528;2023-06-14T06:39:41;20.90;77.10
64062;DHT22;50308;47.438;-1.528;2023-06-14T06:42:07;20.90;77.20
64062;DHT22;50308;47.438;-1.528;2023-06-14T06:44:33;20.90;77.10
64062;DHT22;50308;47.438;-1.528;2023-06-14T06:46:58;20.90;77.10
64062;DHT22;50308;47.438;-1.528;2023-06-14T06:49:24;21.00;77.40
64062;DHT22;50308;47.438;-1.528;2023-06-14T06:52:01;21.00;77.60
64062;DHT22;50308;47.438;-1.528;2023-06-14T06:54:29;21.00;77.70
64062;DHT22;50308;47.438;-1.528;2023-06-14T06:56:55;21.10;77.60
64062;DHT22;50308;47.438;-1.528;2023-06-14T06:59:21;21.10;77.50
64062;DHT22;50308;47.438;-1.528;2023-06-14T07:01:47;21.20;77.50
64062;DHT22;50308;47.438;-1.528;2023-06-14T07:04:13;21.20;77.30
64062;DHT22;50308;47.438;-1.528;2023-06-14T07:06:39;21.30;77.20
64062;DHT22;50308;47.438;-1.528;2023-06-14T07:09:05;21.30;77.20
64062;DHT22;50308;47.438;-1.528;2023-06-14T07:11:33;21.30;77.30
64062;DHT22;50308;47.438;-1.528;2023-06-14T07:13:59;21.30;77.40
64062;DHT22;50308;47.438;-1.528;2023-06-14T07:16:25;21.30;77.20
64062;DHT22;50308;47.438;-1.528;2023-06-14T07:18:51;21.30;77.10
64062;DHT22;50308;47.438;-1.528;2023-06-14T07:21:17;21.30;77.10
64062;DHT22;50308;47.438;-1.528;2023-06-14T07:23:43;21.30;77.30
64062;DHT22;50308;47.438;-1.528;2023-06-14T07:26:09;21.30;77.10
64062;DHT22;50308;47.438;-1.528;2023-06-14T07:28:35;21.30;77.40
64062;DHT22;50308;47.438;-1.528;2023-06-14T07:31:01;21.40;77.20
64062;DHT22;50308;47.438;-1.528;2023-06-14T07:33:27;21.40;77.50
64062;DHT22;50308;47.438;-1.528;2023-06-14T07:35:52;21.40;77.60
64062;DHT22;50308;47.438;-1.528;2023-06-14T07:38:18;21.50;77.40
64062;DHT22;50308;47.438;-1.528;2023-06-14T07:40:44;21.50;77.50
64062;DHT22;50308;47.438;-1.528;2023-06-14T07:43:09;21.50;76.90
64062;DHT22;50308;47.438;-1.528;2023-06-14T07:45:36;21.50;77.00
64062;DHT22;50308;47.438;-1.528;2023-06-14T07:48:02;21.50;77.00
64062;DHT22;50308;47.438;-1.528;2023-06-14T07:50:28;21.60;77.30
64062;DHT22;50308;47.438;-1.528;2023-06-14T07:52:54;21.50;77.20
64062;DHT22;50308;47.438;-1.528;2023-06-14T07:55:20;21.60;77.10
64062;DHT22;50308;47.438;-1.528;2023-06-14T07:57:46;21.60;76.50
64062;DHT22;50308;47.438;-1.528;2023-06-14T08:00:12;21.60;77.00
64062;DHT22;50308;47.438;-1.528;2023-06-14T08:02:41;21.60;76.60
64062;DHT22;50308;47.438;-1.528;2023-06-14T08:05:09;21.60;76.90
64062;DHT22;50308;47.438;-1.528;2023-06-14T08:07:36;21.60;77.10
64062;DHT22;50308;47.438;-1.528;2023-06-14T08:10:03;21.60;76.90
64062;DHT22;50308;47.438;-1.528;2023-06-14T08:12:28;21.60;77.10
64062;DHT22;50308;47.438;-1.528;2023-06-14T08:14:54;21.60;76.80
64062;DHT22;50308;47.438;-1.528;2023-06-14T08:17:20;21.70;77.60
64062;DHT22;50308;47.438;-1.528;2023-06-14T08:19:45;21.70;76.40
64062;DHT22;50308;47.438;-1.528;2023-06-14T08:22:12;21.70;76.60
64062;DHT22;50308;47.438;-1.528;2023-06-14T08:24:38;21.70;76.40
64062;DHT22;50308;47.438;-1.528;2023-06-14T08:27:05;21.70;76.60
64062;DHT22;50308;47.438;-1.528;2023-06-14T08:29:31;21.70;76.50
64062;DHT22;50308;47.438;-1.528;2023-06-14T08:31:58;21.70;76.40
64062;DHT22;50308;47.438;-1.528;2023-06-14T08:34:23;21.80;76.50
64062;DHT22;50308;47.438;-1.528;2023-06-14T08:36:52;21.80;76.40
64062;DHT22;50308;47.438;-1.528;2023-06-14T08:39:17;21.80;76.60
64062;DHT22;50308;47.438;-1.528;2023-06-14T08:41:46;21.80;76.60
64062;DHT22;50308;47.438;-1.528;2023-06-14T08:44:18;21.80;76.30
64062;DHT22;50308;47.438;-1.528;2023-06-14T08:46:45;21.80;76.30
64062;DHT22;50308;47.438;-1.528;2023-06-14T08:49:13;21.80;76.60
64062;DHT22;50308;47.438;-1.528;2023-06-14T08:51:43;21.80;76.50
64062;DHT22;50308;47.438;-1.528;2023-06-14T08:54:10;21.80;76.40
64062;DHT22;50308;47.438;-1.528;2023-06-14T08:56:38;21.80;76.30
64062;DHT22;50308;47.438;-1.528;2023-06-14T08:59:04;21.80;76.30
64062;DHT22;50308;47.438;-1.528;2023-06-14T09:01:36;21.80;76.30
64062;DHT22;50308;47.438;-1.528;2023-06-14T09:04:02;21.90;76.50
64062;DHT22;50308;47.438;-1.528;2023-06-14T09:06:30;21.80;76.30
64062;DHT22;50308;47.438;-1.528;2023-06-14T09:08:56;21.90;76.40
64062;DHT22;50308;47.438;-1.528;2023-06-14T09:11:22;21.90;76.50
64062;DHT22;50308;47.438;-1.528;2023-06-14T09:13:49;21.90;76.50
64062;DHT22;50308;47.438;-1.528;2023-06-14T09:16:16;21.80;76.40
64062;DHT22;50308;47.438;-1.528;2023-06-14T09:18:43;21.80;76.50
64062;DHT22;50308;47.438;-1.528;2023-06-14T09:21:11;21.90;76.60
64062;DHT22;50308;47.438;-1.528;2023-06-14T09:23:47;21.90;76.60
64062;DHT22;50308;47.438;-1.528;2023-06-14T09:26:16;21.90;76.60
64062;DHT22;50308;47.438;-1.528;2023-06-14T09:28:50;21.90;76.60
64062;DHT22;50308;47.438;-1.528;2023-06-14T09:31:20;21.90;76.60
64062;DHT22;50308;47.438;-1.528;2023-06-14T09:33:49;21.90;76.70
64062;DHT22;50308;47.438;-1.528;2023-06-14T09:36:21;21.90;76.70
64062;DHT22;50308;47.438;-1.528;2023-06-14T09:38:54;21.90;76.50
64062;DHT22;50308;47.438;-1.528;2023-06-14T09:41:42;21.90;76.50
64062;DHT22;50308;47.438;-1.528;2023-06-14T09:44:09;21.90;76.50
64062;DHT22;50308;47.438;-1.528;2023-06-14T09:46:36;21.90;76.60
64062;DHT22;50308;47.438;-1.528;2023-06-14T09:49:03;22.00;76.80
64062;DHT22;50308;47.438;-1.528;2023-06-14T09:51:30;22.00;76.70
64062;DHT22;50308;47.438;-1.528;2023-06-14T09:54:00;22.00;76.60
64062;DHT22;50308;47.438;-1.528;2023-06-14T09:56:30;22.00;77.70
64062;DHT22;50308;47.438;-1.528;2023-06-14T09:58:58;22.00;76.60
64062;DHT22;50308;47.438;-1.528;2023-06-14T10:01:25;22.00;76.60
64062;DHT22;50308;47.438;-1.528;2023-06-14T10:03:55;22.00;76.60
64062;DHT22;50308;47.438;-1.528;2023-06-14T10:06:24;22.00;76.50
64062;DHT22;50308;47.438;-1.528;2023-06-14T10:08:52;22.00;76.50
64062;DHT22;50308;47.438;-1.528;2023-06-14T10:11:19;22.00;76.50
64062;DHT22;50308;47.438;-1.528;2023-06-14T10:13:45;22.00;76.50
64062;DHT22;50308;47.438;-1.528;2023-06-14T10:16:27;22.00;76.40
64062;DHT22;50308;47.438;-1.528;2023-06-14T10:24:09;22.10;76.30
64062;DHT22;50308;47.438;-1.528;2023-06-14T10:26:53;22.00;76.30
64062;DHT22;50308;47.438;-1.528;2023-06-14T10:29:20;22.00;76.30
64062;DHT22;50308;47.438;-1.528;2023-06-14T10:31:47;22.00;76.30
64062;DHT22;50308;47.438;-1.528;2023-06-14T10:34:27;22.10;76.30
64062;DHT22;50308;47.438;-1.528;2023-06-14T10:39:30;22.10;76.30
64062;DHT22;50308;47.438;-1.528;2023-06-14T10:41:56;22.10;76.20
64062;DHT22;50308;47.438;-1.528;2023-06-14T10:46:55;22.10;76.30
64062;DHT22;50308;47.438;-1.528;2023-06-14T10:52:09;22.10;76.00
64062;DHT22;50308;47.438;-1.528;2023-06-14T10:55:08;22.10;76.00
64062;DHT22;50308;47.438;-1.528;2023-06-14T11:00:12;22.20;75.90
64062;DHT22;50308;47.438;-1.528;2023-06-14T11:10:41;22.20;75.60
64062;DHT22;50308;47.438;-1.528;2023-06-14T11:13:08;22.20;75.70
64062;DHT22;50308;47.438;-1.528;2023-06-14T11:15:36;22.20;75.80
64062;DHT22;50308;47.438;-1.528;2023-06-14T11:18:04;22.20;75.70
64062;DHT22;50308;47.438;-1.528;2023-06-14T11:20:32;22.20;75.70
64062;DHT22;50308;47.438;-1.528;2023-06-14T11:22:58;22.20;75.90
64062;DHT22;50308;47.438;-1.528;2023-06-14T11:25:24;22.20;75.70
64062;DHT22;50308;47.438;-1.528;2023-06-14T11:27:51;22.20;75.70
64062;DHT22;50308;47.438;-1.528;2023-06-14T11:30:17;22.20;75.80
64062;DHT22;50308;47.438;-1.528;2023-06-14T11:32:46;22.20;75.80
64062;DHT22;50308;47.438;-1.528;2023-06-14T11:35:12;22.20;75.70
64062;DHT22;50308;47.438;-1.528;2023-06-14T11:37:38;22.20;75.80
64062;DHT22;50308;47.438;-1.528;2023-06-14T11:40:04;22.20;75.70
64062;DHT22;50308;47.438;-1.528;2023-06-14T11:42:35;22.20;75.80
64062;DHT22;50308;47.438;-1.528;2023-06-14T11:45:02;22.20;75.70
64062;DHT22;50308;47.438;-1.528;2023-06-14T11:47:46;22.20;75.80
64062;DHT22;50308;47.438;-1.528;2023-06-14T11:50:12;22.20;75.80
64062;DHT22;50308;47.438;-1.528;2023-06-14T11:52:37;22.20;75.70
64062;DHT22;50308;47.438;-1.528;2023-06-14T11:55:04;22.20;75.90
64062;DHT22;50308;47.438;-1.528;2023-06-14T11:57:34;22.20;75.90
64062;DHT22;50308;47.438;-1.528;2023-06-14T12:00:00;22.20;75.80
64062;DHT22;50308;47.438;-1.528;2023-06-14T12:02:31;22.30;75.80
64062;DHT22;50308;47.438;-1.528;2023-06-14T12:05:04;22.30;76.00
64062;DHT22;50308;47.438;-1.528;2023-06-14T12:07:31;22.20;75.80
64062;DHT22;50308;47.438;-1.528;2023-06-14T12:12:25;22.30;75.80
64062;DHT22;50308;47.438;-1.528;2023-06-14T12:14:52;22.20;75.70
64062;DHT22;50308;47.438;-1.528;2023-06-14T12:17:19;22.30;75.70
64062;DHT22;50308;47.438;-1.528;2023-06-14T12:19:45;22.30;75.70
64062;DHT22;50308;47.438;-1.528;2023-06-14T12:22:12;22.30;75.90
64062;DHT22;50308;47.438;-1.528;2023-06-14T12:24:38;22.30;75.80
64062;DHT22;50308;47.438;-1.528;2023-06-14T12:27:05;22.30;75.70
64062;DHT22;50308;47.438;-1.528;2023-06-14T12:29:31;22.30;75.80
64062;DHT22;50308;47.438;-1.528;2023-06-14T12:31:57;22.30;75.90
64062;DHT22;50308;47.438;-1.528;2023-06-14T12:34:27;22.20;75.80
64062;DHT22;50308;47.438;-1.528;2023-06-14T12:36:53;22.30;75.80
64062;DHT22;50308;47.438;-1.528;2023-06-14T12:39:20;22.20;75.80
64062;DHT22;50308;47.438;-1.528;2023-06-14T12:41:46;22.30;75.90
64062;DHT22;50308;47.438;-1.528;2023-06-14T12:44:12;22.30;75.90
64062;DHT22;50308;47.438;-1.528;2023-06-14T12:46:39;22.30;75.90
64062;DHT22;50308;47.438;-1.528;2023-06-14T12:49:07;22.30;75.70
64062;DHT22;50308;47.438;-1.528;2023-06-14T12:51:33;22.30;75.70
64062;DHT22;50308;47.438;-1.528;2023-06-14T12:53:59;22.30;75.50
64062;DHT22;50308;47.438;-1.528;2023-06-14T12:56:24;22.30;75.50
64062;DHT22;50308;47.438;-1.528;2023-06-14T12:58:51;22.30;75.50
64062;DHT22;50308;47.438;-1.528;2023-06-14T13:01:17;22.30;75.50
64062;DHT22;50308;47.438;-1.528;2023-06-14T13:03:43;22.30;75.20
64062;DHT22;50308;47.438;-1.528;2023-06-14T13:06:09;22.30;75.00
64062;DHT22;50308;47.438;-1.528;2023-06-14T13:08:34;22.30;75.20
64062;DHT22;50308;47.438;-1.528;2023-06-14T13:11:00;22.30;75.20
64062;DHT22;50308;47.438;-1.528;2023-06-14T13:13:26;22.30;75.30
64062;DHT22;50308;47.438;-1.528;2023-06-14T13:15:51;22.30;74.90
64062;DHT22;50308;47.438;-1.528;2023-06-14T13:18:17;22.30;74.80
64062;DHT22;50308;47.438;-1.528;2023-06-14T13:20:43;22.30;74.50
64062;DHT22;50308;47.438;-1.528;2023-06-14T13:23:09;22.30;74.40
64062;DHT22;50308;47.438;-1.528;2023-06-14T13:25:36;22.30;73.70
64062;DHT22;50308;47.438;-1.528;2023-06-14T13:28:03;22.40;74.10
64062;DHT22;50308;47.438;-1.528;2023-06-14T13:30:28;22.40;74.00
64062;DHT22;50308;47.438;-1.528;2023-06-14T13:32:55;22.40;73.90
64062;DHT22;50308;47.438;-1.528;2023-06-14T13:35:21;22.40;74.10
64062;DHT22;50308;47.438;-1.528;2023-06-14T13:37:47;22.30;74.10
64062;DHT22;50308;47.438;-1.528;2023-06-14T13:40:13;22.30;74.20
64062;DHT22;50308;47.438;-1.528;2023-06-14T13:42:39;22.40;73.80
64062;DHT22;50308;47.438;-1.528;2023-06-14T13:45:06;22.40;73.90
64062;DHT22;50308;47.438;-1.528;2023-06-14T13:47:32;22.30;74.10
64062;DHT22;50308;47.438;-1.528;2023-06-14T13:49:58;22.40;73.70
64062;DHT22;50308;47.438;-1.528;2023-06-14T13:52:24;22.40;73.70
64062;DHT22;50308;47.438;-1.528;2023-06-14T13:54:50;22.40;73.30
64062;DHT22;50308;47.438;-1.528;2023-06-14T13:57:17;22.40;72.40
64062;DHT22;50308;47.438;-1.528;2023-06-14T13:59:43;22.40;72.20
64062;DHT22;50308;47.438;-1.528;2023-06-14T14:02:11;22.40;72.90
64062;DHT22;50308;47.438;-1.528;2023-06-14T14:04:38;22.40;72.90
64062;DHT22;50308;47.438;-1.528;2023-06-14T14:07:05;22.40;72.00
64062;DHT22;50308;47.438;-1.528;2023-06-14T14:09:32;22.40;71.70
64062;DHT22;50308;47.438;-1.528;2023-06-14T14:11:58;22.40;72.60
64062;DHT22;50308;47.438;-1.528;2023-06-14T14:14:24;22.40;72.70
64062;DHT22;50308;47.438;-1.528;2023-06-14T14:16:50;22.40;72.70
64062;DHT22;50308;47.438;-1.528;2023-06-14T14:19:23;22.40;72.70
64062;DHT22;50308;47.438;-1.528;2023-06-14T14:21:49;22.40;72.20
64062;DHT22;50308;47.438;-1.528;2023-06-14T14:24:15;22.50;72.60
64062;DHT22;50308;47.438;-1.528;2023-06-14T14:26:41;22.50;72.80
64062;DHT22;50308;47.438;-1.528;2023-06-14T14:29:08;22.40;72.50
64062;DHT22;50308;47.438;-1.528;2023-06-14T14:31:34;22.50;72.20
64062;DHT22;50308;47.438;-1.528;2023-06-14T14:34:00;22.50;72.30
64062;DHT22;50308;47.438;-1.528;2023-06-14T14:36:26;22.50;71.30
64062;DHT22;50308;47.438;-1.528;2023-06-14T14:38:51;22.60;72.00
64062;DHT22;50308;47.438;-1.528;2023-06-14T14:41:17;22.50;71.90
64062;DHT22;50308;47.438;-1.528;2023-06-14T14:43:43;22.50;72.10
64062;DHT22;50308;47.438;-1.528;2023-06-14T14:46:09;22.50;72.50
64062;DHT22;50308;47.438;-1.528;2023-06-14T14:48:35;22.50;72.10
64062;DHT22;50308;47.438;-1.528;2023-06-14T14:51:00;22.50;72.40
64062;DHT22;50308;47.438;-1.528;2023-06-14T14:53:26;22.50;72.70
64062;DHT22;50308;47.438;-1.528;2023-06-14T14:55:52;22.50;72.70
64062;DHT22;50308;47.438;-1.528;2023-06-14T14:58:18;22.50;72.60
64062;DHT22;50308;47.438;-1.528;2023-06-14T15:00:46;22.50;72.90
64062;DHT22;50308;47.438;-1.528;2023-06-14T15:03:13;22.50;72.90
64062;DHT22;50308;47.438;-1.528;2023-06-14T15:05:39;22.50;72.60
64062;DHT22;50308;47.438;-1.528;2023-06-14T15:08:05;22.60;72.70
64062;DHT22;50308;47.438;-1.528;2023-06-14T15:10:39;22.60;72.70
64062;DHT22;50308;47.438;-1.528;2023-06-14T15:13:09;22.60;72.90
64062;DHT22;50308;47.438;-1.528;2023-06-14T15:15:35;22.60;72.60
64062;DHT22;50308;47.438;-1.528;2023-06-14T15:18:01;22.60;72.50
64062;DHT22;50308;47.438;-1.528;2023-06-14T15:20:27;22.60;72.80
64062;DHT22;50308;47.438;-1.528;2023-06-14T15:22:54;22.60;72.80
64062;DHT22;50308;47.438;-1.528;2023-06-14T15:25:25;22.60;72.60
64062;DHT22;50308;47.438;-1.528;2023-06-14T15:27:51;22.60;72.90
64062;DHT22;50308;47.438;-1.528;2023-06-14T15:30:17;22.60;72.80
64062;DHT22;50308;47.438;-1.528;2023-06-14T15:32:42;22.60;72.60
64062;DHT22;50308;47.438;-1.528;2023-06-14T15:35:08;22.60;72.70
64062;DHT22;50308;47.438;-1.528;2023-06-14T15:37:34;22.60;72.90
64062;DHT22;50308;47.438;-1.528;2023-06-14T15:39:59;22.60;72.90
64062;DHT22;50308;47.438;-1.528;2023-06-14T15:42:25;22.60;72.90